Time;durP1;ratioP1;P1;durP2;ratioP2;P2;SDS_P1;SDS_P2;PMS_P1;PMS_P2;Temp;Humidity;BMP_temperature;BMP_pressure;BME280_temperature;BME280_humidity;BME280_pressure;Samples;Min_cycle;Max_cycle;Signal;HPM_P1;HPM_P2
2022/11/17 00:00:28;;;;;;;16.12;6.82;;;;;;;12.55;75.81;96656.94;4410300;32;20082;-80
2022/11/17 00:02:55;;;;;;;17.87;7.55;;;;;;;13.07;73.16;96661.66;4410995;32;20098;-80
2022/11/17 00:05:22;;;;;;;16.85;7.43;;;;;;;12.76;74.87;96657.97;4410929;32;20102;-80
2022/11/17 00:07:49;;;;;;;17.67;7.65;;;;;;;12.77;74.94;96654.44;4410512;32;20073;-80
2022/11/17 00:10:17;;;;;;;17.62;8.18;;;;;;;13.29;72.41;96646.22;4410426;32;20082;-80
2022/11/17 00:15:42;;;;;;;18.40;7.37;;;;;;;13.18;72.12;96651.31;4369157;32;20815;-80
2022/11/17 00:23:46;;;;;;;16.50;7.22;;;;;;;13.73;70.06;96661.91;4410926;32;20449;-80
2022/11/17 00:26:15;;;;;;;14.93;6.32;;;;;;;13.29;71.46;96653.13;4410773;32;20141;-80
2022/11/17 00:28:42;;;;;;;15.43;7.07;;;;;;;13.11;72.87;96657.94;4410265;32;20086;-80
2022/11/17 00:34:05;;;;;;;13.80;5.82;;;;;;;13.64;70.31;96647.87;4410489;32;20156;-80
2022/11/17 00:36:33;;;;;;;15.02;6.87;;;;;;;14.26;67.80;96644.72;4410897;32;20146;-80
2022/11/17 00:39:00;;;;;;;16.75;6.95;;;;;;;14.38;67.01;96638.56;4410623;32;20151;-80
2022/11/17 00:41:27;;;;;;;15.82;6.87;;;;;;;14.50;65.25;96636.78;4410264;32;20082;-80
2022/11/17 00:43:54;;;;;;;14.57;6.55;;;;;;;14.78;63.93;96640.56;4410525;32;20086;-79
2022/11/17 00:46:21;;;;;;;15.20;7.55;;;;;;;14.05;66.79;96636.06;4410518;32;20090;-80
2022/11/17 00:48:48;;;;;;;14.05;6.32;;;;;;;13.14;72.11;96649.09;4410207;32;20094;-80
2022/11/17 00:51:15;;;;;;;15.55;6.65;;;;;;;12.99;72.94;96645.91;4410508;32;20104;-79
2022/11/17 00:53:42;;;;;;;16.45;6.55;;;;;;;12.44;76.17;96637.00;4410597;32;20155;-79
2022/11/17 00:56:09;;;;;;;15.30;6.18;;;;;;;11.66;80.36;96647.69;4410211;32;20099;-80
2022/11/17 00:58:36;;;;;;;17.02;7.00;;;;;;;11.79;79.71;96640.75;4410487;32;20138;-80
2022/11/17 01:01:03;;;;;;;16.30;6.72;;;;;;;11.64;81.85;96644.38;4396680;32;20082;-80
2022/11/17 01:03:30;;;;;;;17.27;7.60;;;;;;;11.97;80.18;96646.41;4410143;32;20121;-80
2022/11/17 01:06:07;;;;;;;19.67;8.60;;;;;;;12.32;78.23;96643.88;4410483;32;20112;-80
2022/11/17 01:08:34;;;;;;;19.70;8.05;;;;;;;11.75;81.19;96639.28;4410390;32;20108;-80
2022/11/17 01:11:13;;;;;;;18.45;7.80;;;;;;;12.23;79.58;96638.53;4409744;32;20097;-79
2022/11/17 01:13:41;;;;;;;22.62;8.57;;;;;;;12.24;78.87;96635.03;4410547;32;20086;-80
2022/11/17 01:16:14;;;;;;;17.75;7.75;;;;;;;12.27;79.56;96635.66;4396509;32;20102;-79
2022/11/17 01:18:42;;;;;;;21.42;8.95;;;;;;;11.83;81.40;96642.22;4410454;32;20086;-80
2022/11/17 01:21:17;;;;;;;20.75;8.52;;;;;;;11.39;83.84;96645.25;4410178;32;20086;-80
2022/11/17 01:23:46;;;;;;;22.27;9.43;;;;;;;12.27;80.29;96647.75;4410131;32;20145;-79
2022/11/17 01:26:15;;;;;;;20.15;8.13;;;;;;;12.18;79.47;96646.63;4410336;32;20090;-80
2022/11/17 01:28:42;;;;;;;17.77;8.07;;;;;;;11.43;83.26;96635.53;4410220;32;20090;-80
2022/11/17 01:31:14;;;;;;;22.27;8.70;;;;;;;11.40;84.66;96640.91;4409395;32;20252;-79
2022/11/17 01:33:41;;;;;;;21.12;8.52;;;;;;;11.45;84.69;96639.66;4410210;32;20160;-79
2022/11/17 01:36:21;;;;;;;21.23;8.95;;;;;;;11.46;84.45;96643.88;4410270;32;20113;-80
2022/11/17 01:38:48;;;;;;;20.60;8.40;;;;;;;11.72;83.89;96638.69;4410010;32;20109;-80
2022/11/17 01:41:26;;;;;;;21.90;9.07;;;;;;;11.45;84.72;96631.06;4410190;32;20081;-79
2022/11/17 01:43:58;;;;;;;19.45;8.75;;;;;;;11.54;84.85;96620.12;4410354;32;20098;-80
2022/11/17 01:46:37;;;;;;;22.60;9.52;;;;;;;11.59;84.56;96618.88;4410185;32;20163;-79
2022/11/17 01:49:09;;;;;;;18.15;8.35;;;;;;;11.65;84.24;96614.19;4410176;32;20089;-79
2022/11/17 01:51:39;;;;;;;22.20;9.25;;;;;;;11.18;86.90;96613.16;4409805;32;20112;-79
2022/11/17 01:54:08;;;;;;;23.10;9.10;;;;;;;11.59;85.71;96611.13;4384117;32;20164;-79
2022/11/17 01:56:38;;;;;;;22.58;9.02;;;;;;;11.74;85.18;96608.41;4396653;32;20116;-80
2022/11/17 01:59:09;;;;;;;21.60;8.55;;;;;;;11.85;83.53;96621.41;4409823;32;20107;-80
2022/11/17 02:01:54;;;;;;;20.15;8.95;;;;;;;11.64;84.78;96610.78;4396487;32;20089;-79
2022/11/17 02:04:27;;;;;;;19.48;8.63;;;;;;;11.41;86.09;96606.41;4410190;32;20169;-79
2022/11/17 02:07:14;;;;;;;19.52;8.48;;;;;;;10.97;88.58;96611.06;4396178;32;20122;-79
2022/11/17 02:09:42;;;;;;;17.55;8.05;;;;;;;11.27;87.59;96610.75;4396363;32;20098;-79
2022/11/17 02:12:11;;;;;;;18.27;8.48;;;;;;;10.83;89.63;96602.59;4409484;32;20082;-79
2022/11/17 02:14:39;;;;;;;19.52;8.23;;;;;;;11.19;87.97;96597.53;4396464;32;20687;-79
2022/11/17 02:17:07;;;;;;;18.75;8.30;;;;;;;11.30;86.94;96602.81;4410059;32;20106;-80
2022/11/17 02:19:41;;;;;;;15.85;7.47;;;;;;;11.14;87.50;96602.19;4409544;32;20505;-79
2022/11/17 02:22:26;;;;;;;18.42;8.52;;;;;;;10.86;89.33;96597.25;4396296;32;20090;-79
2022/11/17 02:25:19;;;;;;;18.90;8.90;;;;;;;11.27;87.46;96581.50;4409898;32;20090;-79
2022/11/17 02:28:16;;;;;;;19.25;8.18;;;;;;;11.28;87.51;96571.09;4409595;32;20452;-80
2022/11/17 02:31:02;;;;;;;16.83;8.45;;;;;;;11.62;85.61;96573.09;4395992;32;20104;-80
2022/11/17 02:33:36;;;;;;;18.02;8.05;;;;;;;11.48;86.22;96555.97;4409576;32;20082;-79
2022/11/17 02:36:30;;;;;;;16.37;7.57;;;;;;;11.19;86.99;96555.41;4396390;32;20173;-80
2022/11/17 02:39:10;;;;;;;19.05;8.50;;;;;;;11.53;85.97;96554.72;4409766;32;20090;-80
2022/11/17 02:41:49;;;;;;;17.55;8.13;;;;;;;11.90;84.47;96548.72;4409450;32;20109;-80
2022/11/17 02:44:36;;;;;;;17.95;8.32;;;;;;;11.65;84.62;96542.69;4394983;32;20155;-80
2022/11/17 02:47:04;;;;;;;18.77;8.75;;;;;;;11.71;85.12;96549.19;4409538;32;20164;-80
2022/11/17 02:49:42;;;;;;;18.55;8.52;;;;;;;11.74;85.62;96546.38;4395619;32;20164;-80
2022/11/17 02:52:08;;;;;;;19.23;8.63;;;;;;;11.75;84.80;96538.53;4396086;32;20158;-80
2022/11/17 02:54:35;;;;;;;19.15;8.90;;;;;;;11.65;85.74;96539.28;4409299;32;20094;-80
2022/11/17 02:57:02;;;;;;;20.62;9.15;;;;;;;11.45;86.53;96545.84;4395965;32;20176;-79
2022/11/17 02:59:45;;;;;;;19.75;8.48;;;;;;;11.41;87.33;96562.50;4409321;32;20093;-80
2022/11/17 03:02:24;;;;;;;19.70;8.75;;;;;;;11.79;85.37;96578.72;4395520;32;20089;-79
2022/11/17 03:05:33;;;;;;;19.92;8.68;;;;;;;11.60;85.90;96583.53;4409598;32;20433;-79
2022/11/17 03:08:31;;;;;;;16.87;7.75;;;;;;;11.44;86.99;96578.59;4395712;32;20098;-79
2022/11/17 03:11:03;;;;;;;18.70;8.52;;;;;;;11.39;87.09;96583.28;4409114;32;20517;-80
2022/11/17 03:13:50;;;;;;;21.60;9.73;;;;;;;11.48;87.03;96584.38;4395787;32;20093;-80
2022/11/17 03:16:23;;;;;;;20.80;9.10;;;;;;;11.84;85.17;96579.25;4395384;32;20101;-80
2022/11/17 03:19:12;;;;;;;20.40;9.32;;;;;;;11.92;83.93;96581.28;4409227;32;20540;-79
2022/11/17 03:21:39;;;;;;;20.45;10.05;;;;;;;11.70;85.71;96583.72;4409168;32;20160;-80
2022/11/17 03:24:17;;;;;;;;;;;;;;;11.74;85.14;96575.62;4409229;32;20082;-80
2022/11/17 03:26:52;;;;;;;19.63;8.87;;;;;;;11.34;87.37;96574.19;4395585;32;19973;-79
2022/11/17 03:29:20;;;;;;;22.05;9.80;;;;;;;11.51;86.70;96576.44;4408827;32;20420;-80
2022/11/17 03:31:50;;;;;;;22.33;9.93;;;;;;;11.73;85.36;96574.00;4409071;32;20113;-80
2022/11/17 03:34:20;;;;;;;20.12;9.15;;;;;;;11.84;84.29;96579.25;4395465;32;20086;-80
2022/11/17 03:36:51;;;;;;;20.90;9.48;;;;;;;12.22;81.79;96575.66;4408769;32;20106;-80
2022/11/17 03:39:25;;;;;;;21.17;8.80;;;;;;;12.06;82.61;96578.53;4395296;32;20110;-80
2022/11/17 03:41:57;;;;;;;22.35;9.32;;;;;;;11.95;83.00;96575.06;4395806;32;20097;-80
2022/11/17 03:44:26;;;;;;;19.02;8.32;;;;;;;12.08;81.84;96579.25;4408553;32;20131;-80
2022/11/17 03:46:54;;;;;;;20.60;8.65;;;;;;;11.94;83.08;96586.34;4408860;32;20105;-80
2022/11/17 03:49:34;;;;;;;21.58;9.85;;;;;;;12.37;79.82;96589.25;4395109;32;20099;-80
2022/11/17 03:52:01;;;;;;;19.50;8.57;;;;;;;12.34;79.95;96586.91;4394861;32;20110;-80
2022/11/17 03:54:28;;;;;;;19.98;9.10;;;;;;;11.70;82.06;96589.72;4409604;32;20100;-80
2022/11/17 03:57:06;;;;;;;20.37;8.80;;;;;;;12.15;80.66;96592.56;4410907;32;20090;-80
2022/11/17 03:59:53;;;;;;;16.62;8.23;;;;;;;12.40;79.11;96587.25;4396819;32;20113;-80
2022/11/17 04:02:21;;;;;;;17.55;7.80;;;;;;;12.24;79.85;96584.16;4411136;32;20102;-80
2022/11/17 04:05:06;;;;;;;18.77;8.48;;;;;;;12.55;78.44;96580.16;4396908;32;20094;-80
2022/11/17 04:07:43;;;;;;;18.85;8.63;;;;;;;12.50;78.89;96574.47;4410902;32;20078;-80
2022/11/17 04:10:14;;;;;;;;;;;;;;;12.05;81.20;96582.06;4410894;32;20106;-80
2022/11/17 04:18:13;;;;;;;19.00;9.55;;;;;;;12.38;79.81;96583.12;4410967;32;20429;-79
2022/11/17 04:20:40;;;;;;;18.75;8.90;;;;;;;11.41;84.06;96589.16;4410233;32;20098;-79
2022/11/17 04:23:10;;;;;;;20.52;9.75;;;;;;;11.11;86.98;96584.31;4410853;32;20106;-80
2022/11/17 04:28:35;;;;;;;22.92;10.35;;;;;;;11.76;83.55;96580.69;4410678;32;20078;-80
2022/11/17 04:31:07;;;;;;;19.25;9.98;;;;;;;12.24;80.78;96588.50;4410557;32;20506;-80
2022/11/17 04:33:35;;;;;;;19.35;9.07;;;;;;;12.04;81.92;96592.50;4410505;32;20090;-80
2022/11/17 04:36:03;;;;;;;20.58;9.50;;;;;;;11.77;82.68;96585.75;4410667;32;20094;-80
2022/11/17 04:38:30;;;;;;;20.92;9.32;;;;;;;13.07;76.36;96590.94;4410703;32;20078;-80
2022/11/17 04:43:48;;;;;;;19.67;9.32;;;;;;;12.34;78.79;96579.13;4410761;32;20098;-80
2022/11/17 04:46:16;;;;;;;19.58;9.13;;;;;;;12.47;79.09;96577.28;4410644;32;20094;-80
2022/11/17 04:48:43;;;;;;;21.67;9.55;;;;;;;11.71;82.38;96573.28;4410173;32;20116;-80
2022/11/17 04:51:10;;;;;;;19.30;9.80;;;;;;;12.92;76.65;96574.81;4410479;32;20117;-80
2022/11/17 04:53:37;;;;;;;18.83;9.50;;;;;;;13.42;73.37;96588.28;4410258;32;20094;-80
2022/11/17 04:56:05;;;;;;;22.02;9.32;;;;;;;13.51;72.75;96582.41;4396890;32;20589;-80
2022/11/17 04:58:32;;;;;;;21.37;9.68;;;;;;;12.60;76.30;96587.56;4410606;32;20148;-80
2022/11/17 05:01:11;;;;;;;20.73;9.13;;;;;;;13.42;71.71;96596.06;4409984;32;20087;-80
2022/11/17 05:03:39;;;;;;;17.80;8.90;;;;;;;12.74;76.04;96600.28;4410642;32;20110;-80
2022/11/17 05:06:06;;;;;;;18.35;8.90;;;;;;;13.46;72.51;96594.87;4409759;32;20085;-79
2022/11/17 05:08:35;;;;;;;23.10;10.25;;;;;;;13.34;73.53;96598.41;4410024;32;20078;-80
2022/11/17 05:13:50;;;;;;;20.88;9.52;;;;;;;13.37;73.30;96605.94;4410488;32;20098;-80
2022/11/17 05:19:04;;;;;;;19.75;10.02;;;;;;;12.00;81.31;96604.81;4410421;32;20083;-80
2022/11/17 05:21:31;;;;;;;19.12;9.13;;;;;;;12.93;76.39;96610.94;4410088;32;20175;-80
2022/11/17 05:23:58;;;;;;;19.30;9.23;;;;;;;12.33;78.76;96598.16;4410380;32;20287;-80
2022/11/17 05:26:27;;;;;;;22.62;9.80;;;;;;;11.83;79.92;96606.03;4410378;32;20105;-80
2022/11/17 05:28:56;;;;;;;20.62;9.98;;;;;;;12.77;76.92;96610.44;4409998;32;20082;-80
2022/11/17 05:31:24;;;;;;;20.27;9.10;;;;;;;12.51;76.84;96608.94;4410266;32;20157;-80
2022/11/17 05:33:52;;;;;;;20.85;9.35;;;;;;;12.53;77.56;96614.81;4410421;32;20094;-80
2022/11/17 05:36:19;;;;;;;20.73;9.68;;;;;;;12.24;78.29;96617.78;4409971;32;20090;-80
2022/11/17 05:38:47;;;;;;;20.65;10.02;;;;;;;11.58;81.47;96618.97;4410232;32;20106;-80
2022/11/17 05:41:15;;;;;;;24.83;10.27;;;;;;;11.82;81.36;96624.22;4410255;32;20099;-80
2022/11/17 05:43:42;;;;;;;22.85;9.32;;;;;;;12.07;80.35;96621.56;4409935;32;20436;-80
2022/11/17 05:46:09;;;;;;;19.70;9.13;;;;;;;12.12;79.62;96622.06;4410302;32;20082;-80
2022/11/17 05:48:36;;;;;;;20.40;9.63;;;;;;;12.10;79.25;96625.66;4410119;32;20459;-80
2022/11/17 05:51:04;;;;;;;20.05;9.68;;;;;;;12.40;77.86;96633.00;4409747;32;20121;-80
2022/11/17 05:53:31;;;;;;;20.00;9.23;;;;;;;12.66;76.80;96631.09;4396526;32;20408;-80
2022/11/17 05:56:39;;;;;;;19.48;8.38;;;;;;;12.41;77.24;96638.06;4410110;32;20090;-80
2022/11/17 05:59:17;;;;;;;21.12;9.10;;;;;;;12.51;77.30;96643.38;4410037;32;20082;-80
2022/11/17 06:02:02;;;;;;;19.52;8.90;;;;;;;12.49;76.76;96647.84;4410283;32;20102;-80
2022/11/17 06:04:29;;;;;;;20.42;9.35;;;;;;;12.84;75.29;96654.78;4409890;32;20094;-80
2022/11/17 06:06:58;;;;;;;20.35;9.13;;;;;;;12.95;75.05;96658.22;4410093;32;20133;-80
2022/11/17 06:09:32;;;;;;;18.45;8.85;;;;;;;13.79;70.85;96664.00;4396473;32;20110;-80
2022/11/17 06:11:59;;;;;;;18.20;8.35;;;;;;;13.04;73.88;96661.91;4383809;32;20101;-80
2022/11/17 06:14:33;;;;;;;19.50;8.65;;;;;;;13.15;73.18;96666.28;4397270;32;20097;-80
2022/11/17 06:17:05;;;;;;;22.70;10.07;;;;;;;13.34;72.48;96669.19;4396147;32;20104;-80
2022/11/17 06:19:40;;;;;;;18.85;8.00;;;;;;;13.15;73.18;96676.63;4409511;32;20108;-80
2022/11/17 06:22:08;;;;;;;18.00;8.23;;;;;;;13.53;71.21;96681.56;4410172;32;20086;-80
2022/11/17 06:24:40;;;;;;;19.87;9.35;;;;;;;13.28;72.52;96674.81;4410054;32;20098;-80
2022/11/17 06:27:09;;;;;;;19.75;8.70;;;;;;;13.29;72.54;96682.50;4409874;32;20082;-80
2022/11/17 06:29:36;;;;;;;20.60;9.07;;;;;;;13.42;72.17;96682.38;4409701;32;20156;-80
2022/11/17 06:32:11;;;;;;;18.87;8.27;;;;;;;13.51;71.54;96686.03;4396769;32;20106;-80
2022/11/17 06:34:38;;;;;;;20.62;9.73;;;;;;;14.01;69.56;96681.31;4409846;32;20105;-80
2022/11/17 06:37:04;;;;;;;19.33;9.18;;;;;;;14.55;67.25;96683.09;4409821;32;20086;-80
2022/11/17 06:39:31;;;;;;;19.05;9.60;;;;;;;14.15;68.91;96687.06;4409217;32;20090;-80
2022/11/17 06:41:58;;;;;;;21.75;9.38;;;;;;;14.79;66.87;96685.50;4409720;32;20110;-80
2022/11/17 06:44:25;;;;;;;21.50;9.63;;;;;;;15.12;64.86;96689.72;4409839;32;20086;-80
2022/11/17 06:46:52;;;;;;;20.25;9.48;;;;;;;14.80;66.59;96689.75;4409354;32;20104;-80
2022/11/17 06:49:19;;;;;;;21.02;9.73;;;;;;;15.21;64.54;96692.37;4409479;32;20086;-80
2022/11/17 06:51:46;;;;;;;21.15;10.73;;;;;;;14.49;66.98;96688.81;4409462;32;20112;-80
2022/11/17 06:54:13;;;;;;;23.48;10.30;;;;;;;14.44;68.04;96689.12;4409240;32;20156;-80
2022/11/17 06:56:41;;;;;;;23.62;10.60;;;;;;;14.46;67.89;96684.66;4409555;32;20077;-79
2022/11/17 06:59:08;;;;;;;23.25;11.12;;;;;;;13.95;70.13;96695.59;4409447;32;20378;-79
2022/11/17 07:01:36;;;;;;;21.73;10.10;;;;;;;13.66;71.26;96691.81;4395548;32;20102;-79
2022/11/17 07:04:03;;;;;;;22.10;10.27;;;;;;;13.90;70.55;96700.28;4409489;32;20125;-79
2022/11/17 07:06:31;;;;;;;23.90;11.35;;;;;;;13.34;73.25;96696.84;4409416;32;20463;-79
2022/11/17 07:08:57;;;;;;;27.40;11.75;;;;;;;13.03;74.81;96692.16;4409029;32;20409;-79
2022/11/17 07:11:25;;;;;;;26.05;11.75;;;;;;;13.41;73.40;96696.28;4409041;32;20098;-80
2022/11/17 07:13:51;;;;;;;25.67;12.23;;;;;;;13.16;74.78;96704.19;4409069;32;20504;-80
2022/11/17 07:16:19;;;;;;;26.08;11.73;;;;;;;13.43;73.76;96709.13;4410285;32;20425;-80
2022/11/17 07:18:51;;;;;;;26.50;12.25;;;;;;;13.34;74.14;96697.66;4396074;32;20519;-83
2022/11/17 07:21:18;;;;;;;27.13;11.77;;;;;;;13.42;73.55;96702.28;4412028;32;20457;-79
2022/11/17 07:23:45;;;;;;;24.60;10.88;;;;;;;13.09;75.21;96697.84;4411191;32;20074;-79
2022/11/17 07:26:13;;;;;;;24.65;11.25;;;;;;;13.34;74.06;96702.84;4411826;32;20100;-82
2022/11/17 07:28:40;;;;;;;24.92;11.20;;;;;;;12.72;77.14;96697.94;4408948;32;20159;-85
2022/11/17 07:31:08;;;;;;;27.33;11.07;;;;;;;13.07;75.81;96694.50;4398486;32;20133;-86
2022/11/17 07:33:35;;;;;;;27.98;11.20;;;;;;;13.26;75.14;96700.81;4398204;32;20141;-87
2022/11/17 07:36:08;;;;;;;28.55;12.75;;;;;;;13.55;74.08;96693.47;4412968;32;20103;-87
2022/11/17 07:38:36;;;;;;;26.45;12.18;;;;;;;13.68;72.43;96695.94;4400936;32;20121;-83
2022/11/17 07:41:05;;;;;;;26.77;12.15;;;;;;;13.56;73.63;96695.09;4411748;32;20174;-80
2022/11/17 07:43:33;;;;;;;23.35;11.60;;;;;;;13.96;70.72;96697.22;4416874;32;20089;-81
2022/11/17 07:46:05;;;;;;;26.75;12.90;;;;;;;13.84;70.45;96693.00;4407666;32;20108;-78
2022/11/17 07:48:33;;;;;;;27.10;12.80;;;;;;;13.58;72.48;96689.81;4423069;32;20066;-79
2022/11/17 07:51:02;;;;;;;22.05;10.30;;;;;;;13.98;71.14;96684.97;4422913;32;20121;-82
2022/11/17 07:53:30;;;;;;;23.25;11.15;;;;;;;14.13;70.20;96682.94;4509563;26;20102;-80
2022/11/17 07:56:02;;;;;;;28.52;11.15;;;;;;;13.98;70.79;96674.59;4479819;32;20148;-79
2022/11/17 07:58:29;;;;;;;24.00;10.70;;;;;;;14.63;67.73;96668.56;4484152;32;20105;-80
2022/11/17 08:00:56;;;;;;;21.90;10.85;;;;;;;14.94;65.67;96659.09;4482083;32;20061;-83
2022/11/17 08:03:23;;;;;;;25.20;10.85;;;;;;;14.99;65.49;96663.91;4486309;31;20080;-83
2022/11/17 08:05:52;;;;;;;22.95;11.23;;;;;;;14.26;67.54;96662.87;4481740;32;20158;-81
2022/11/17 08:08:19;;;;;;;25.10;10.73;;;;;;;14.88;66.46;96671.75;4473428;32;20077;-81
2022/11/17 08:10:46;;;;;;;22.15;10.77;;;;;;;15.34;64.58;96684.38;4473332;32;20160;-81
2022/11/17 08:13:14;;;;;;;26.30;11.38;;;;;;;14.55;67.41;96680.50;4481282;32;20057;-81
2022/11/17 08:15:41;;;;;;;24.05;11.02;;;;;;;15.23;64.96;96693.06;4481250;32;20061;-81
2022/11/17 08:18:08;;;;;;;22.70;10.73;;;;;;;15.11;65.75;96691.50;4481134;32;20080;-81
2022/11/17 08:20:36;;;;;;;22.35;10.45;;;;;;;15.31;65.46;96684.63;4478076;32;20092;-81
2022/11/17 08:23:03;;;;;;;23.85;10.48;;;;;;;16.18;61.80;96688.47;4479841;32;20112;-83
2022/11/17 08:25:29;;;;;;;24.17;10.38;;;;;;;16.14;61.98;96683.66;4478339;32;20061;-83
2022/11/17 08:27:57;;;;;;;21.52;10.45;;;;;;;16.68;60.04;96690.19;4481896;31;20128;-81
2022/11/17 08:30:43;;;;;;;22.80;10.45;;;;;;;17.26;58.85;96691.00;4486204;32;20121;-82
2022/11/17 08:33:10;;;;;;;20.45;9.57;;;;;;;18.21;56.01;96700.47;4485130;32;20116;-82
2022/11/17 08:35:37;;;;;;;23.02;10.10;;;;;;;18.81;51.73;96692.94;4479999;32;20103;-82
2022/11/17 08:38:04;;;;;;;19.75;9.63;;;;;;;18.85;53.08;96693.50;4468354;32;20657;-82
2022/11/17 08:40:42;;;;;;;19.80;9.52;;;;;;;19.56;50.07;96691.59;4470022;32;20121;-82
2022/11/17 08:43:09;;;;;;;18.70;9.25;;;;;;;19.22;50.07;96690.69;4646721;26;20057;-81
2022/11/17 08:45:36;;;;;;;21.58;9.55;;;;;;;18.97;51.15;96692.28;4455238;32;20064;-81
2022/11/17 08:48:06;;;;;;;18.23;9.15;;;;;;;17.62;53.99;96689.41;4483175;32;20112;-82
2022/11/17 08:54:25;;;;;;;19.75;9.27;;;;;;;16.15;59.08;96703.50;4845931;26;20097;-81
2022/11/17 08:57:16;;;;;;;20.98;9.32;;;;;;;16.48;59.68;96686.72;4534305;31;289023;-81
2022/11/17 08:59:46;;;;;;;20.15;8.98;;;;;;;16.48;59.68;96686.72;4526437;31;20114;-81
2022/11/17 09:02:13;;;;;;;19.80;8.75;;;;;;;15.51;63.69;96686.37;4511578;32;20119;-81
2022/11/17 09:04:40;;;;;;;18.90;8.98;;;;;;;15.07;63.94;96681.47;4510466;31;20060;-81
2022/11/17 09:07:07;;;;;;;18.75;8.60;;;;;;;15.61;62.40;96689.06;4510216;32;20116;-80
2022/11/17 09:09:35;;;;;;;18.45;8.88;;;;;;;15.76;62.11;96692.16;4510242;31;20096;-80
2022/11/17 09:12:02;;;;;;;19.70;8.70;;;;;;;14.95;66.00;96696.28;4512489;31;20061;-81
2022/11/17 09:14:30;;;;;;;18.87;8.38;;;;;;;15.16;64.63;96694.53;4510979;32;20097;-81
2022/11/17 09:16:57;;;;;;;17.90;8.00;;;;;;;15.09;65.66;96687.34;4510878;32;20145;-81
2022/11/17 09:19:42;;;;;;;20.48;8.98;;;;;;;15.16;63.95;96681.53;4511181;32;20113;-82
2022/11/17 09:22:09;;;;;;;17.48;8.90;;;;;;;15.31;64.20;96675.06;4535726;26;20092;-81
2022/11/17 09:24:37;;;;;;;22.77;9.68;;;;;;;15.75;63.26;96680.94;4622281;26;20061;-81
2022/11/17 09:27:04;;;;;;;19.50;8.93;;;;;;;16.09;61.03;96680.63;4492874;32;20729;-82
2022/11/17 09:29:31;;;;;;;19.67;8.93;;;;;;;15.64;62.29;96664.59;4542847;26;20060;-83
2022/11/17 09:31:57;;;;;;;19.62;9.38;;;;;;;15.88;61.69;96684.13;4492593;32;20092;-82
2022/11/17 09:34:24;;;;;;;27.40;9.15;;;;;;;15.74;62.27;96692.28;4588763;26;20069;-82
2022/11/17 09:36:51;;;;;;;21.25;9.20;;;;;;;15.62;62.25;96690.69;4504698;26;20111;-83
2022/11/17 09:39:21;;;;;;;20.50;9.13;;;;;;;15.85;62.27;96688.78;4490449;32;20110;-81
2022/11/17 09:41:50;;;;;;;19.27;9.05;;;;;;;15.89;62.14;96684.94;4495709;32;20057;-81
2022/11/17 09:44:40;;;;;;;18.73;9.07;;;;;;;16.00;62.72;96678.81;4492828;32;20083;-81
2022/11/17 09:47:31;;;;;;;19.62;9.07;;;;;;;15.82;63.70;96682.03;4633622;26;20069;-81
2022/11/17 09:50:12;;;;;;;17.98;8.63;;;;;;;16.02;61.66;96679.50;4513772;26;20122;-80
2022/11/17 09:53:08;;;;;;;16.90;8.45;;;;;;;15.63;62.79;96681.97;4703650;26;20140;-82
2022/11/17 10:01:02;;;;;;;19.05;8.32;;;;;;;15.77;64.46;96689.41;4551401;26;20081;-81
2022/11/17 10:03:31;;;;;;;17.48;8.45;;;;;;;16.00;62.02;96682.25;4477846;32;20171;-82
2022/11/17 10:06:00;;;;;;;19.12;8.93;;;;;;;15.59;64.35;96681.38;4479057;32;20052;-80
2022/11/17 10:08:33;;;;;;;20.52;9.30;;;;;;;15.71;64.16;96673.50;4461061;32;20105;-80
2022/11/17 10:11:30;;;;;;;16.35;7.95;;;;;;;15.74;65.09;96661.09;4458196;32;20062;-80
2022/11/17 10:13:48;;;;;;;19.80;8.88;;;;;;;15.40;65.57;96657.03;4458961;32;20061;-80
2022/11/17 10:16:15;;;;;;;18.27;8.45;;;;;;;15.99;63.10;96657.19;4458662;32;20139;-80
2022/11/17 10:18:42;;;;;;;20.33;8.93;;;;;;;16.17;61.93;96655.59;4456824;32;20089;-80
2022/11/17 10:21:09;;;;;;;19.67;9.13;;;;;;;16.46;60.44;96647.81;4456843;32;20120;-77
2022/11/17 10:23:39;;;;;;;18.83;8.77;;;;;;;16.61;61.41;96642.22;4456928;32;20138;-77
2022/11/17 10:26:13;;;;;;;16.80;7.68;;;;;;;16.03;64.49;96636.94;4458392;32;20073;-77
2022/11/17 10:28:40;;;;;;;15.77;7.12;;;;;;;16.16;61.18;96633.13;4458430;32;20093;-77
2022/11/17 10:31:13;;;;;;;18.70;7.85;;;;;;;16.05;62.46;96641.03;4456583;32;20105;-78
2022/11/17 10:33:43;;;;;;;15.18;7.40;;;;;;;15.54;65.88;96647.16;4458222;32;20177;-83
2022/11/17 10:36:20;;;;;;;15.32;6.97;;;;;;;15.69;64.06;96652.00;4458140;32;20053;-83
2022/11/17 10:38:53;;;;;;;13.98;6.78;;;;;;;15.25;65.90;96651.38;4455496;32;20093;-84
2022/11/17 10:41:24;;;;;;;16.40;6.75;;;;;;;15.69;64.68;96650.25;4456842;32;20151;-83
2022/11/17 10:44:05;;;;;;;15.90;7.28;;;;;;;15.37;66.27;96642.53;4456916;32;20077;-82
2022/11/17 10:46:32;;;;;;;19.62;7.50;;;;;;;15.25;65.93;96640.97;4455159;32;20119;-82
2022/11/17 10:49:33;;;;;;;13.70;6.80;;;;;;;15.47;66.26;96650.38;4456512;32;20101;-82
2022/11/17 10:52:10;;;;;;;15.07;7.12;;;;;;;14.81;69.64;96639.47;4456259;32;20129;-83
2022/11/17 10:54:37;;;;;;;15.95;6.72;;;;;;;15.93;65.04;96636.91;4456644;32;20084;-83
2022/11/17 10:57:24;;;;;;;15.85;7.47;;;;;;;16.09;63.24;96642.44;4456473;32;20146;-82
2022/11/17 10:59:52;;;;;;;15.02;7.35;;;;;;;16.27;61.73;96639.16;4454580;32;20466;-82
2022/11/17 11:02:36;;;;;;;15.07;7.05;;;;;;;16.02;63.56;96649.09;4456416;32;20116;-82
2022/11/17 11:05:06;;;;;;;15.43;6.70;;;;;;;15.91;63.74;96646.63;4456645;32;20138;-81
2022/11/17 11:07:34;;;;;;;16.33;7.03;;;;;;;16.09;62.47;96645.03;4456329;32;20085;-84
2022/11/17 11:10:07;;;;;;;16.00;7.10;;;;;;;16.19;63.11;96647.66;4456178;32;20116;-85
2022/11/17 11:12:52;;;;;;;14.50;7.55;;;;;;;16.08;63.82;96650.38;4456326;32;20514;-85
2022/11/17 11:15:24;;;;;;;16.60;7.55;;;;;;;15.65;65.85;96641.06;4456420;32;20085;-83
2022/11/17 11:17:51;;;;;;;15.88;7.05;;;;;;;15.11;68.21;96644.72;4455033;32;20153;-83
2022/11/17 11:20:21;;;;;;;11.35;4.85;;;;;;;16.35;63.13;96640.13;4455278;32;20368;-83
2022/11/17 11:22:51;;;;;;;13.10;4.75;;;;;;;16.32;61.50;96637.00;4456386;32;20100;-84
2022/11/17 11:25:35;;;;;;;11.80;5.30;;;;;;;15.72;61.96;96639.56;4455199;32;20153;-83
2022/11/17 11:28:10;;;;;;;13.45;5.07;;;;;;;16.12;60.63;96626.53;4454782;32;20164;-83
2022/11/17 11:30:46;;;;;;;10.60;4.57;;;;;;;15.63;61.15;96637.78;4456075;32;20097;-83
2022/11/17 11:33:16;;;;;;;11.12;4.70;;;;;;;15.51;62.90;96643.97;4455038;32;20486;-84
2022/11/17 11:36:13;;;;;;;13.15;5.10;;;;;;;15.63;61.47;96629.97;4455941;32;20103;-85
2022/11/17 11:38:51;;;;;;;11.80;4.65;;;;;;;15.64;61.87;96626.41;4455189;32;20076;-83
2022/11/17 11:41:41;;;;;;;12.00;5.30;;;;;;;16.13;60.79;96637.78;4455995;32;20545;-82
2022/11/17 11:44:32;;;;;;;12.55;5.03;;;;;;;15.86;60.21;96636.62;4456137;32;20101;-80
2022/11/17 11:47:34;;;;;;;11.63;5.12;;;;;;;15.83;61.06;96626.47;4456250;32;20081;-80
2022/11/17 11:50:11;;;;;;;11.27;4.93;;;;;;;16.00;60.29;96632.81;4454656;32;20126;-80
2022/11/17 11:52:43;;;;;;;14.10;5.60;;;;;;;16.19;60.07;96634.66;4456073;32;20201;-81
2022/11/17 11:55:29;;;;;;;11.40;5.10;;;;;;;16.24;60.26;96644.62;4456121;32;20111;-80
2022/11/17 11:57:59;;;;;;;14.35;5.70;;;;;;;16.95;58.60;96643.47;4454996;32;20093;-80
2022/11/17 12:00:26;;;;;;;13.55;5.45;;;;;;;17.26;56.77;96645.88;4455690;32;20073;-80
2022/11/17 12:03:19;;;;;;;12.55;5.68;;;;;;;17.29;56.05;96649.00;4458438;32;20093;-80
2022/11/17 12:05:58;;;;;;;13.80;5.55;;;;;;;16.84;57.00;96642.78;4466697;32;20106;-84
2022/11/17 12:08:35;;;;;;;13.02;6.18;;;;;;;16.41;60.11;96644.81;4464310;32;20115;-82
2022/11/17 12:11:59;;;;;;;13.93;6.22;;;;;;;16.77;59.00;96639.91;4468071;32;20120;-82
2022/11/17 12:13:53;;;;;;;13.07;6.07;;;;;;;16.94;57.96;96644.44;4464293;32;20105;-81
2022/11/17 12:16:46;;;;;;;13.18;5.95;;;;;;;17.08;57.98;96632.75;4468193;32;20073;-80
2022/11/17 12:19:55;;;;;;;13.77;5.72;;;;;;;17.42;55.47;96627.03;4461918;32;20069;-82
2022/11/17 12:22:28;;;;;;;15.57;6.75;;;;;;;17.23;57.61;96633.13;4466431;32;20103;-80
2022/11/17 12:25:15;;;;;;;13.62;6.15;;;;;;;17.55;54.81;96637.97;4468002;32;20069;-80